Time;durP1;ratioP1;P1;durP2;ratioP2;P2;SDS_P1;SDS_P2;PMS_P1;PMS_P2;Temp;Humidity;BMP_temperature;BMP_pressure;BME280_temperature;BME280_humidity;BME280_pressure;Samples;Min_cycle;Max_cycle;Signal;HPM_P1;HPM_P2
2023/02/10 00:01:19;;;;;;;4.45;4.20;;;-3.40;93.30;;;;;;6096544;23;20709;-78
2023/02/10 00:03:47;;;;;;;4.10;3.90;;;-3.40;92.90;;;;;;6095535;23;20410;-78
2023/02/10 00:06:16;;;;;;;3.97;3.78;;;-3.60;93.50;;;;;;6096327;23;20399;-79
2023/02/10 00:08:47;;;;;;;4.32;4.13;;;-3.60;93.70;;;;;;6095997;23;20738;-78
2023/02/10 00:11:15;;;;;;;3.60;3.45;;;-3.70;93.70;;;;;;6096191;23;20384;-78
2023/02/10 00:13:42;;;;;;;4.97;4.67;;;-3.90;95.00;;;;;;6097185;23;20375;-79
2023/02/10 00:16:14;;;;;;;4.28;4.07;;;-3.90;96.80;;;;;;6098503;23;20371;-78
2023/02/10 00:18:42;;;;;;;4.13;3.92;;;-3.80;96.80;;;;;;6097783;23;20391;-78
2023/02/10 00:21:13;;;;;;;3.70;3.50;;;-3.80;96.00;;;;;;6099055;23;20367;-78
2023/02/10 00:23:40;;;;;;;3.88;3.67;;;-3.70;94.70;;;;;;6097084;23;20860;-79
2023/02/10 00:26:10;;;;;;;3.80;3.60;;;-3.70;94.10;;;;;;6098737;23;20368;-79
2023/02/10 00:28:37;;;;;;;3.75;3.55;;;-3.70;94.10;;;;;;6098548;23;20438;-79
2023/02/10 00:31:18;;;;;;;3.65;3.45;;;-3.70;93.80;;;;;;6097483;23;20375;-79
2023/02/10 00:33:45;;;;;;;3.85;3.65;;;-3.80;94.30;;;;;;6096643;23;20391;-78
2023/02/10 00:36:14;;;;;;;3.85;3.65;;;-3.80;95.00;;;;;;6098838;23;20372;-78
2023/02/10 00:38:42;;;;;;;3.90;3.70;;;-3.80;94.60;;;;;;6097211;23;20681;-79
2023/02/10 00:41:16;;;;;;;3.80;3.60;;;-3.80;94.60;;;;;;6098925;23;20692;-79
2023/02/10 00:43:44;;;;;;;3.63;3.42;;;-3.80;94.40;;;;;;6096840;23;20383;-79
2023/02/10 00:46:16;;;;;;;4.07;3.78;;;-3.80;93.90;;;;;;6098276;23;20883;-79
2023/02/10 00:48:44;;;;;;;4.10;3.90;;;-3.70;93.30;;;;;;6097334;23;20790;-79
2023/02/10 00:51:12;;;;;;;3.72;3.53;;;-3.70;92.70;;;;;;6098569;23;20455;-79
2023/02/10 00:53:39;;;;;;;3.97;3.78;;;-3.70;92.50;;;;;;6098713;23;20700;-79
2023/02/10 00:56:08;;;;;;;3.72;3.53;;;-3.70;92.90;;;;;;6097317;23;20394;-79
2023/02/10 00:58:36;;;;;;;3.92;3.72;;;-3.80;92.50;;;;;;6098359;23;20380;-79
2023/02/10 01:01:03;;;;;;;3.45;3.35;;;-3.80;92.30;;;;;;6096788;23;20370;-79
2023/02/10 01:03:31;;;;;;;3.50;3.40;;;-4.00;93.40;;;;;;6098553;23;20719;-79
2023/02/10 01:05:58;;;;;;;3.72;3.55;;;-4.00;93.40;;;;;;6095852;23;20459;-78
2023/02/10 01:08:25;;;;;;;3.50;3.40;;;-4.10;93.20;;;;;;6097887;23;20427;-78
2023/02/10 01:11:03;;;;;;;4.03;3.83;;;-4.10;92.80;;;;;;6097337;23;20372;-78
2023/02/10 01:13:30;;;;;;;3.85;3.65;;;-4.10;93.90;;;;;;6096954;23;20752;-78
2023/02/10 01:15:57;;;;;;;3.33;3.22;;;-4.10;93.50;;;;;;6097342;23;20431;-79
2023/02/10 01:18:24;;;;;;;3.55;3.40;;;-4.10;92.90;;;;;;6097888;23;20383;-79
2023/02/10 01:20:51;;;;;;;3.53;3.40;;;-4.10;92.40;;;;;;6096550;23;20434;-79
2023/02/10 01:23:18;;;;;;;3.92;3.72;;;-4.10;92.00;;;;;;6098179;23;20379;-79
2023/02/10 01:25:45;;;;;;;3.50;3.30;;;-4.10;91.70;;;;;;6122248;23;20400;-79
2023/02/10 01:28:13;;;;;;;4.00;3.80;;;-4.10;91.90;;;;;;6098318;23;20383;-79
2023/02/10 01:30:40;;;;;;;3.83;3.63;;;-4.20;92.50;;;;;;6097703;23;20379;-78
2023/02/10 01:33:06;;;;;;;3.92;3.72;;;-4.30;94.10;;;;;;6096901;23;20434;-78
2023/02/10 01:35:38;;;;;;;4.22;4.03;;;-4.30;94.30;;;;;;6098211;23;20379;-78
2023/02/10 01:38:05;;;;;;;4.10;3.90;;;-4.30;97.90;;;;;;6096358;23;20689;-79
2023/02/10 01:40:32;;;;;;;3.65;3.53;;;-4.30;97.10;;;;;;6097413;23;20395;-78
2023/02/10 01:42:59;;;;;;;3.70;3.53;;;-4.30;96.80;;;;;;6096459;23;20455;-78
2023/02/10 01:45:37;;;;;;;3.78;3.58;;;-4.30;96.50;;;;;;6097852;23;20372;-79
2023/02/10 01:48:06;;;;;;;3.80;3.60;;;-4.40;95.70;;;;;;6097149;23;20375;-78
2023/02/10 01:50:51;;;;;;;3.25;3.15;;;-4.40;96.00;;;;;;6097692;23;20911;-78
2023/02/10 01:53:20;;;;;;;4.20;4.00;;;-4.50;96.00;;;;;;6096936;23;20384;-78
2023/02/10 01:55:52;;;;;;;3.50;3.33;;;-4.60;97.00;;;;;;6097434;23;20429;-78
2023/02/10 01:58:23;;;;;;;3.58;3.47;;;-4.60;99.00;;;;;;6096765;23;20379;-78
2023/02/10 02:00:50;;;;;;;3.42;3.22;;;-4.80;99.90;;;;;;6096632;23;20380;-78
2023/02/10 06:48:55;;;;;;;3.15;3.05;;;-5.80;99.90;;;;;;6139272;23;20376;-78
2023/02/10 06:51:22;;;;;;;3.60;3.50;;;-5.80;99.90;;;;;;6125667;23;20429;-78
2023/02/10 06:53:49;;;;;;;4.00;3.80;;;-5.80;99.90;;;;;;6125077;23;20424;-78
2023/02/10 06:56:16;;;;;;;4.35;4.15;;;-5.80;99.90;;;;;;6125857;23;20842;-78
2023/02/10 06:58:44;;;;;;;4.07;3.88;;;-5.80;99.90;;;;;;6125853;23;20752;-78
2023/02/10 07:01:14;;;;;;;3.40;3.30;;;-5.80;99.90;;;;;;6124910;23;20405;-78
2023/02/10 07:03:41;;;;;;;3.60;3.50;;;-5.80;99.90;;;;;;6100396;23;20769;-78
2023/02/10 07:06:08;;;;;;;3.80;3.60;;;-5.70;99.90;;;;;;6095990;23;20394;-78
2023/02/10 07:08:35;;;;;;;3.85;3.65;;;-5.80;99.90;;;;;;6096677;23;20386;-78
2023/02/10 07:11:02;;;;;;;4.10;3.90;;;-5.70;99.90;;;;;;6096326;23;20490;-78
2023/02/10 07:13:29;;;;;;;3.70;3.53;;;-5.80;99.90;;;;;;6096825;23;20375;-78
2023/02/10 07:15:56;;;;;;;3.70;3.55;;;-5.80;99.90;;;;;;6121155;23;20415;-78
2023/02/10 07:18:23;;;;;;;4.40;4.20;;;-5.80;99.90;;;;;;6096602;23;20367;-78
2023/02/10 07:20:50;;;;;;;3.70;3.50;;;-5.90;99.90;;;;;;6096429;23;20387;-78
2023/02/10 07:23:17;;;;;;;3.70;3.60;;;-5.90;99.90;;;;;;6121723;23;20363;-78
2023/02/10 07:26:01;;;;;;;4.00;3.80;;;-5.90;99.90;;;;;;6121178;23;20395;-79
2023/02/10 07:28:28;;;;;;;4.63;4.43;;;-5.90;99.90;;;;;;6096849;23;20482;-78
2023/02/10 07:30:55;;;;;;;4.38;4.18;;;-5.90;99.90;;;;;;6095694;23;20387;-78
2023/02/10 07:33:22;;;;;;;4.32;4.13;;;-5.80;99.90;;;;;;6096149;23;20446;-78
2023/02/10 07:35:49;;;;;;;4.53;4.32;;;-5.70;99.90;;;;;;6096545;23;20431;-78
2023/02/10 07:38:16;;;;;;;5.50;5.20;;;-5.60;99.90;;;;;;6094961;23;20376;-79
2023/02/10 07:40:43;;;;;;;4.82;4.53;;;-5.50;99.90;;;;;;6095420;23;20383;-78
2023/02/10 07:43:10;;;;;;;4.50;4.20;;;-5.30;99.90;;;;;;6095539;23;20430;-78
2023/02/10 07:45:37;;;;;;;4.20;4.00;;;-5.20;99.90;;;;;;6095852;23;20914;-76
2023/02/10 07:48:03;;;;;;;4.40;4.20;;;-5.00;99.90;;;;;;6094961;23;20403;-76
2023/02/10 07:50:30;;;;;;;3.92;3.72;;;-4.70;99.90;;;;;;6095480;23;20379;-76
2023/02/10 07:53:00;;;;;;;3.97;3.78;;;-4.40;99.90;;;;;;6096127;23;20844;-76
2023/02/10 07:55:27;;;;;;;4.20;4.00;;;-4.00;99.90;;;;;;6096678;23;20386;-76
2023/02/10 07:57:54;;;;;;;4.50;4.30;;;-3.70;99.90;;;;;;6095731;23;20423;-76
2023/02/10 08:00:21;;;;;;;4.63;4.35;;;-3.30;99.90;;;;;;6093292;23;20898;-77
2023/02/10 08:02:48;;;;;;;4.70;4.50;;;-2.90;99.90;;;;;;6121870;23;20407;-77
2023/02/10 08:05:15;;;;;;;5.72;5.43;;;-2.80;99.90;;;;;;6119740;23;20386;-77
2023/02/10 08:07:41;;;;;;;5.17;4.87;;;-2.50;98.20;;;;;;6095668;23;20458;-77
2023/02/10 08:10:08;;;;;;;4.60;4.40;;;-2.20;97.00;;;;;;6095219;23;20439;-77
2023/02/10 08:12:35;;;;;;;4.72;4.40;;;-1.80;96.10;;;;;;6095158;23;20391;-77
2023/02/10 08:15:02;;;;;;;4.43;4.13;;;-1.60;94.80;;;;;;6094759;23;20376;-77
2023/02/10 08:17:29;;;;;;;4.43;4.23;;;-1.50;94.50;;;;;;6092517;23;20458;-77
2023/02/10 08:19:56;;;;;;;4.05;3.85;;;-1.30;94.30;;;;;;6095124;23;20387;-77
2023/02/10 08:22:23;;;;;;;4.10;3.90;;;-1.00;94.70;;;;;;6120217;23;20423;-77
2023/02/10 08:24:50;;;;;;;3.80;3.60;;;-0.70;93.90;;;;;;6095740;23;20392;-76
2023/02/10 08:27:17;;;;;;;4.50;4.30;;;-0.60;94.30;;;;;;6094604;23;20384;-76
2023/02/10 08:29:44;;;;;;;3.92;3.70;;;-0.20;93.40;;;;;;6121163;23;21026;-77
2023/02/10 08:32:12;;;;;;;3.80;3.60;;;0.10;91.10;;;;;;6094402;23;20416;-77
2023/02/10 08:34:40;;;;;;;4.20;4.00;;;0.30;90.60;;;;;;6122077;23;20737;-77
2023/02/10 08:37:07;;;;;;;5.20;4.90;;;0.40;89.00;;;;;;6096184;23;20372;-77
2023/02/10 08:39:34;;;;;;;4.47;4.28;;;0.70;85.50;;;;;;6097900;23;20700;-77
2023/02/10 08:42:01;;;;;;;3.90;3.70;;;1.00;85.30;;;;;;6096531;23;20372;-77
2023/02/10 08:44:28;;;;;;;3.85;3.65;;;1.20;78.20;;;;;;6094922;23;20375;-76
2023/02/10 08:46:55;;;;;;;3.20;3.08;;;1.40;78.10;;;;;;6096895;23;20380;-77
2023/02/10 08:49:24;;;;;;;3.17;2.97;;;1.70;73.50;;;;;;6122181;23;20368;-76
2023/02/10 08:51:52;;;;;;;2.70;2.60;;;1.90;71.40;;;;;;6122834;23;20432;-77
2023/02/10 08:54:19;;;;;;;3.00;2.90;;;2.10;68.60;;;;;;6121972;23;20447;-76
2023/02/10 08:56:46;;;;;;;3.07;2.97;;;2.30;65.60;;;;;;6122758;23;20380;-76
2023/02/10 08:59:13;;;;;;;2.78;2.67;;;2.30;62.80;;;;;;6096312;23;20459;-77
2023/02/10 09:01:40;;;;;;;2.88;2.78;;;2.50;62.70;;;;;;6096991;23;20406;-77
2023/02/10 09:04:07;;;;;;;2.63;2.53;;;2.70;62.70;;;;;;6096454;23;20427;-79
2023/02/10 09:06:42;;;;;;;2.95;2.85;;;2.80;62.20;;;;;;6097722;23;20368;-76
2023/02/10 09:09:15;;;;;;;3.00;2.90;;;2.90;61.20;;;;;;6122101;23;20816;-77
2023/02/10 09:11:43;;;;;;;3.00;2.90;;;3.00;61.10;;;;;;6097784;23;20692;-76
2023/02/10 09:14:09;;;;;;;2.50;2.40;;;2.60;60.10;;;;;;6121852;23;20442;-76
2023/02/10 09:16:36;;;;;;;2.65;2.55;;;2.80;59.30;;;;;;6097445;23;20375;-76
2023/02/10 09:19:04;;;;;;;2.47;2.38;;;2.90;57.20;;;;;;6096975;23;20380;-76
2023/02/10 09:21:31;;;;;;;2.40;2.30;;;2.90;58.00;;;;;;6097019;23;20886;-76
2023/02/10 09:24:12;;;;;;;2.08;1.98;;;2.80;56.80;;;;;;6097843;23;20396;-78
2023/02/10 09:26:39;;;;;;;1.88;1.77;;;3.00;56.30;;;;;;6097014;23;20383;-76
2023/02/10 09:29:07;;;;;;;2.20;2.10;;;3.20;55.90;;;;;;6097241;23;20387;-76
2023/02/10 09:31:35;;;;;;;2.53;2.43;;;3.30;55.30;;;;;;6095683;23;20493;-77
2023/02/10 09:34:03;;;;;;;2.40;2.30;;;3.50;55.30;;;;;;6122015;23;20903;-77
2023/02/10 09:36:30;;;;;;;2.40;2.30;;;3.60;56.00;;;;;;6121871;23;20755;-77
2023/02/10 09:38:57;;;;;;;2.20;2.10;;;3.80;55.60;;;;;;6097225;23;20375;-77
2023/02/10 09:41:36;;;;;;;2.15;2.05;;;4.00;52.80;;;;;;6095720;23;20443;-77
2023/02/10 09:44:26;;;;;;;2.03;1.92;;;4.00;52.10;;;;;;6121841;23;20440;-77
2023/02/10 09:46:56;;;;;;;2.10;2.00;;;4.20;52.10;;;;;;6095247;23;20371;-77
2023/02/10 09:49:47;;;;;;;1.77;1.67;;;4.30;51.10;;;;;;6096835;23;20408;-77
2023/02/10 09:52:48;;;;;;;1.88;1.77;;;4.40;50.40;;;;;;6120264;23;20450;-78
2023/02/10 09:55:23;;;;;;;1.67;1.67;;;4.30;49.60;;;;;;6095540;23;20368;-76
2023/02/10 09:57:57;;;;;;;1.83;1.73;;;4.40;49.00;;;;;;6096640;23;20455;-77
2023/02/10 10:00:33;;;;;;;1.90;1.80;;;4.30;48.60;;;;;;6095653;23;20681;-77
2023/02/10 10:03:05;;;;;;;1.83;1.73;;;4.30;49.90;;;;;;6095528;23;20376;-76
2023/02/10 10:06:03;;;;;;;1.90;1.80;;;4.60;49.30;;;;;;6096506;23;20375;-77
2023/02/10 10:08:53;;;;;;;1.98;1.88;;;4.80;48.40;;;;;;6095862;23;20446;-77
2023/02/10 10:11:25;;;;;;;1.67;1.58;;;4.90;47.90;;;;;;6094663;23;20394;-77
2023/02/10 10:13:55;;;;;;;1.70;1.60;;;5.00;46.50;;;;;;6095082;23;20443;-76
2023/02/10 10:16:44;;;;;;;1.23;1.23;;;4.80;45.70;;;;;;6095460;23;20372;-76
2023/02/10 10:19:43;;;;;;;1.70;1.60;;;4.90;46.00;;;;;;6095163;23;20408;-76
2023/02/10 10:22:41;;;;;;;1.70;1.60;;;5.10;45.40;;;;;;6095548;23;20376;-76
2023/02/10 10:25:11;;;;;;;2.15;2.05;;;5.20;45.60;;;;;;6119433;23;20443;-78
2023/02/10 10:28:00;;;;;;;2.00;1.90;;;5.40;47.30;;;;;;6122135;23;20372;-78
2023/02/10 10:30:43;;;;;;;1.70;1.63;;;5.40;47.30;;;;;;6095074;23;20439;-76
2023/02/10 10:33:26;;;;;;;2.45;2.35;;;5.50;47.90;;;;;;6094824;23;20463;-77
2023/02/10 10:35:54;;;;;;;2.40;2.30;;;5.70;47.70;;;;;;6095048;23;20423;-77
2023/02/10 10:38:28;;;;;;;2.50;2.40;;;5.70;47.90;;;;;;6095878;23;20380;-76
2023/02/10 10:41:06;;;;;;;1.92;1.83;;;5.80;47.50;;;;;;6096323;23;20450;-78
2023/02/10 10:43:43;;;;;;;2.08;1.98;;;5.90;47.30;;;;;;6121576;23;20374;-77
2023/02/10 10:46:17;;;;;;;2.00;1.90;;;5.70;46.60;;;;;;6121304;23;20372;-77
2023/02/10 10:48:44;;;;;;;1.88;1.77;;;5.70;46.60;;;;;;6095799;23;20375;-77
2023/02/10 10:51:13;;;;;;;1.80;1.70;;;5.80;46.80;;;;;;6095573;23;20433;-76
2023/02/10 10:53:54;;;;;;;1.90;1.80;;;6.00;46.70;;;;;;6096545;23;20380;-76
2023/02/10 10:56:48;;;;;;;1.90;1.80;;;6.20;45.40;;;;;;6095770;23;20780;-77
2023/02/10 10:59:20;;;;;;;1.80;1.63;;;6.10;44.70;;;;;;6095915;23;20458;-76
2023/02/10 11:01:48;;;;;;;1.70;1.60;;;6.20;45.40;;;;;;6096602;23;20387;-77
2023/02/10 11:04:18;;;;;;;2.03;1.80;;;6.20;44.80;;;;;;6095281;23;20380;-76
2023/02/10 11:06:49;;;;;;;1.83;1.73;;;6.50;44.40;;;;;;6096431;23;20395;-77
2023/02/10 11:09:34;;;;;;;2.47;2.38;;;6.70;44.20;;;;;;6095662;23;20376;-77
2023/02/10 11:12:16;;;;;;;2.30;2.20;;;6.30;43.90;;;;;;6095878;23;20450;-77
2023/02/10 11:14:47;;;;;;;2.00;1.85;;;6.10;45.40;;;;;;6095483;23;20439;-77
2023/02/10 11:17:34;;;;;;;1.88;1.77;;;6.00;45.60;;;;;;6096380;23;20388;-77
2023/02/10 11:20:05;;;;;;;2.00;1.90;;;5.90;45.70;;;;;;6095552;23;20376;-77
2023/02/10 11:22:32;;;;;;;1.85;1.75;;;6.00;44.90;;;;;;6096404;23;20376;-77
2023/02/10 11:25:05;;;;;;;1.20;1.20;;;6.20;44.90;;;;;;6094902;23;20676;-77
2023/02/10 11:27:32;;;;;;;1.50;1.50;;;6.20;42.40;;;;;;6121973;23;20379;-77
2023/02/10 11:30:01;;;;;;;1.23;1.23;;;6.10;42.10;;;;;;6095344;23;20426;-77
2023/02/10 11:32:32;;;;;;;1.15;1.15;;;6.20;42.90;;;;;;6096444;23;20768;-77
2023/02/10 11:35:02;;;;;;;1.48;1.38;;;6.40;42.60;;;;;;6095590;23;20371;-77
2023/02/10 11:37:36;;;;;;;1.20;1.20;;;6.50;42.00;;;;;;6096301;23;20372;-77
2023/02/10 11:40:20;;;;;;;1.30;1.30;;;6.80;41.60;;;;;;6121419;23;20696;-77
2023/02/10 11:42:50;;;;;;;1.20;1.20;;;6.90;41.40;;;;;;6095651;23;20717;-77
2023/02/10 11:45:20;;;;;;;1.40;1.40;;;6.80;39.60;;;;;;6096557;23;20376;-77
2023/02/10 11:47:47;;;;;;;1.33;1.33;;;7.10;40.40;;;;;;6095593;23;20375;-77
2023/02/10 11:50:27;;;;;;;3.63;3.47;;;7.00;39.00;;;;;;6119872;23;20382;-75
2023/02/10 11:52:55;;;;;;;1.35;1.30;;;6.40;39.10;;;;;;6095299;23;20371;-78
2023/02/10 11:55:41;;;;;;;1.60;1.50;;;6.30;39.30;;;;;;6096044;23;20415;-77
2023/02/10 11:58:59;;;;;;;4.35;4.13;;;6.60;40.00;;;;;;6095192;23;21569;-78
2023/02/10 12:01:37;;;;;;;1.23;1.13;;;6.70;39.20;;;;;;6048923;23;20697;-77
2023/02/10 12:04:19;;;;;;;1.45;1.42;;;6.70;39.60;;;;;;6095247;23;20459;-77
2023/02/10 12:07:11;;;;;;;1.27;1.17;;;7.00;38.70;;;;;;6096541;23;20772;-77
2023/02/10 12:09:57;;;;;;;1.23;1.23;;;6.90;37.40;;;;;;6120704;23;20423;-77
2023/02/10 12:12:45;;;;;;;1.55;1.55;;;7.30;38.20;;;;;;6097027;23;20380;-77
2023/02/10 12:15:40;;;;;;;0.98;0.98;;;7.40;36.60;;;;;;6098080;23;20387;-77
2023/02/10 12:18:31;;;;;;;1.98;1.88;;;7.70;36.80;;;;;;6121727;23;20443;-78
2023/02/10 12:21:13;;;;;;;1.20;1.20;;;7.80;36.00;;;;;;6121494;23;20439;-78
2023/02/10 12:24:12;;;;;;;1.30;1.30;;;8.00;37.90;;;;;;6097947;23;20375;-77
2023/02/10 12:27:05;;;;;;;1.17;1.17;;;8.20;36.80;;;;;;6035130;23;20380;-78
2023/02/10 12:29:57;;;;;;;1.20;1.17;;;8.50;35.90;;;;;;6086153;23;20380;-78
2023/02/10 12:32:52;;;;;;;1.08;1.08;;;8.80;35.70;;;;;;6096643;23;20380;-77
2023/02/10 12:35:57;;;;;;;1.30;1.30;;;9.10;35.00;;;;;;6096670;23;20446;-77
2023/02/10 12:38:39;;;;;;;1.20;1.20;;;8.60;34.20;;;;;;6005051;23;20415;-77
2023/02/10 12:41:24;;;;;;;1.20;1.10;;;8.80;35.20;;;;;;6089629;23;20387;-77
2023/02/10 12:43:54;;;;;;;1.20;1.20;;;9.10;33.80;;;;;;6121257;23;20383;-77
2023/02/10 12:46:21;;;;;;;1.05;1.05;;;9.30;33.40;;;;;;6123348;23;20388;-77
2023/02/10 12:49:07;;;;;;;1.08;1.08;;;9.20;32.80;;;;;;6096460;23;20382;-77
2023/02/10 12:51:58;;;;;;;2.10;1.90;;;9.20;34.20;;;;;;6096862;23;20383;-78
2023/02/10 12:54:43;;;;;;;1.08;1.08;;;8.90;33.70;;;;;;6123267;23;20495;-77
2023/02/10 12:57:22;;;;;;;1.30;1.20;;;8.10;34.30;;;;;;6122010;23;20907;-77
2023/02/10 13:00:12;;;;;;;1.00;1.00;;;8.00;36.00;;;;;;6096433;23;20406;-78
2023/02/10 13:03:01;;;;;;;1.10;1.10;;;8.60;34.80;;;;;;6097351;23;20380;-78
2023/02/10 13:05:37;;;;;;;0.90;0.90;;;8.70;35.30;;;;;;6121623;23;20460;-77
2023/02/10 13:08:10;;;;;;;1.25;1.20;;;9.00;34.70;;;;;;6096808;23;20782;-77
2023/02/10 13:10:50;;;;;;;1.17;1.17;;;9.10;34.80;;;;;;6097342;23;20376;-77
2023/02/10 13:13:23;;;;;;;1.10;1.10;;;8.90;34.60;;;;;;6096688;23;20471;-77
2023/02/10 13:15:58;;;;;;;1.27;1.17;;;9.10;35.40;;;;;;6097602;23;20678;-77
2023/02/10 13:18:28;;;;;;;1.17;1.17;;;9.30;34.60;;;;;;6096584;23;20372;-77
2023/02/10 13:21:02;;;;;;;1.20;1.20;;;9.40;33.20;;;;;;6097213;23;20375;-77
2023/02/10 13:23:51;;;;;;;1.23;1.23;;;9.50;33.40;;;;;;6096271;23;20368;-77
2023/02/10 13:26:46;;;;;;;1.30;1.20;;;9.10;34.60;;;;;;6095663;23;20863;-77
2023/02/10 13:29:35;;;;;;;1.30;1.30;;;9.50;34.60;;;;;;6096240;23;20375;-78
2023/02/10 13:32:43;;;;;;;1.10;1.10;;;9.40;34.20;;;;;;6097215;23;20371;-78
2023/02/10 13:35:17;;;;;;;1.20;1.20;;;9.80;34.10;;;;;;6095172;23;20761;-77
2023/02/10 13:37:50;;;;;;;1.35;1.30;;;9.70;33.30;;;;;;6121064;23;20376;-77
2023/02/10 13:40:22;;;;;;;1.10;1.10;;;9.90;34.10;;;;;;6096967;23;20407;-77
2023/02/10 13:42:57;;;;;;;1.25;1.25;;;9.80;33.20;;;;;;6122757;23;20446;-77
2023/02/10 13:45:26;;;;;;;1.13;1.13;;;9.90;33.40;;;;;;6096076;23;20368;-77
2023/02/10 13:48:06;;;;;;;1.23;1.20;;;9.40;34.30;;;;;;6097248;23;20409;-78
2023/02/10 13:50:49;;;;;;;1.20;1.10;;;9.40;33.60;;;;;;6121840;23;20415;-77
2023/02/10 13:53:37;;;;;;;1.17;1.08;;;9.30;34.70;;;;;;6095550;23;20765;-77
2023/02/10 13:56:19;;;;;;;1.00;1.00;;;9.70;34.00;;;;;;6097576;23;20372;-77
2023/02/10 13:59:04;;;;;;;1.20;1.20;;;10.10;33.00;;;;;;6120426;23;20447;-77
2023/02/10 14:01:41;;;;;;;1.08;1.08;;;10.00;33.50;;;;;;6094674;23;20753;-77
2023/02/10 14:04:17;;;;;;;1.20;1.20;;;9.40;33.60;;;;;;6096461;23;20367;-77
2023/02/10 14:06:54;;;;;;;1.10;1.10;;;9.60;33.90;;;;;;6121437;23;20364;-77
2023/02/10 14:09:29;;;;;;;1.13;1.10;;;9.90;33.20;;;;;;6095793;23;20418;-77
2023/02/10 14:11:59;;;;;;;1.10;1.10;;;9.80;32.90;;;;;;6095607;23;20503;-77
2023/02/10 14:14:40;;;;;;;1.15;1.15;;;9.70;34.30;;;;;;6121649;23;20451;-77
2023/02/10 14:17:13;;;;;;;1.50;1.40;;;10.10;33.60;;;;;;6095274;23;20386;-78
2023/02/10 14:19:43;;;;;;;1.35;1.35;;;10.00;32.70;;;;;;6096366;23;20701;-77
2023/02/10 14:22:32;;;;;;;1.10;1.10;;;10.00;32.40;;;;;;6095522;23;20375;-77
2023/02/10 14:25:27;;;;;;;1.10;1.10;;;10.00;32.50;;;;;;6092963;23;20438;-77
2023/02/10 14:27:55;;;;;;;1.10;1.10;;;9.40;33.00;;;;;;6118300;23;20760;-77
2023/02/10 14:30:27;;;;;;;1.10;1.10;;;9.00;33.60;;;;;;6096357;23;20379;-77
2023/02/10 14:32:55;;;;;;;1.10;1.02;;;9.10;35.00;;;;;;6095293;23;20379;-77
2023/02/10 14:35:25;;;;;;;1.07;1.07;;;9.30;34.90;;;;;;6095828;23;20395;-77
2023/02/10 14:37:58;;;;;;;1.20;1.20;;;9.50;33.70;;;;;;6096137;23;20406;-77
2023/02/10 14:40:28;;;;;;;1.15;1.15;;;9.50;33.50;;;;;;6121946;23;20439;-77
2023/02/10 14:42:59;;;;;;;1.70;1.40;;;9.20;33.90;;;;;;6095474;23;20450;-78
2023/02/10 14:45:27;;;;;;;1.37;1.37;;;9.20;33.80;;;;;;6121226;23;20388;-78
2023/02/10 14:47:56;;;;;;;1.15;1.10;;;8.90;33.40;;;;;;6095470;23;20387;-78
2023/02/10 14:50:27;;;;;;;1.10;1.10;;;8.60;33.80;;;;;;6096120;23;20371;-77
2023/02/10 14:52:54;;;;;;;1.37;1.37;;;8.60;33.90;;;;;;6120866;23;20418;-77
2023/02/10 14:55:27;;;;;;;0.90;0.90;;;8.70;34.40;;;;;;6095816;23;20387;-78
2023/02/10 14:58:03;;;;;;;1.10;1.10;;;8.70;34.30;;;;;;6094784;23;20434;-77
2023/02/10 15:00:31;;;;;;;1.25;1.25;;;8.90;35.00;;;;;;6121701;23;20760;-76
2023/02/10 15:03:00;;;;;;;1.20;1.17;;;8.90;34.10;;;;;;6119675;23;20422;-78
2023/02/10 15:05:38;;;;;;;1.10;1.10;;;8.60;34.20;;;;;;6121401;23;20443;-76
2023/02/10 15:08:12;;;;;;;1.00;1.00;;;8.60;33.60;;;;;;6094919;23;20436;-76
2023/02/10 15:10:49;;;;;;;0.90;0.90;;;8.50;33.30;;;;;;6121264;23;20376;-77
2023/02/10 15:13:34;;;;;;;0.88;0.88;;;8.40;34.20;;;;;;6095160;23;20372;-77
2023/02/10 15:16:02;;;;;;;1.60;1.50;;;8.60;33.90;;;;;;6095228;23;20372;-77
2023/02/10 15:18:33;;;;;;;1.17;1.17;;;8.70;34.10;;;;;;6096300;23;20368;-77
2023/02/10 15:21:03;;;;;;;1.10;1.10;;;8.70;33.20;;;;;;6095227;23;20387;-77
2023/02/10 15:23:30;;;;;;;1.10;1.10;;;8.60;33.20;;;;;;6096096;23;20380;-77
2023/02/10 15:26:17;;;;;;;0.90;0.90;;;8.80;33.30;;;;;;6120687;23;20705;-77
2023/02/10 15:28:43;;;;;;;0.90;0.90;;;9.00;33.20;;;;;;6095911;23;20372;-76
2023/02/10 15:31:13;;;;;;;1.10;1.00;;;9.10;33.00;;;;;;6094783;23;20419;-77
2023/02/10 15:33:45;;;;;;;1.00;0.90;;;8.80;32.80;;;;;;6120804;23;20372;-77
2023/02/10 15:36:26;;;;;;;1.30;1.30;;;8.90;33.20;;;;;;6094925;23;20457;-76
2023/02/10 15:38:56;;;;;;;1.40;1.40;;;8.70;32.50;;;;;;6096052;23;20382;-76
2023/02/10 15:41:32;;;;;;;1.40;1.30;;;8.40;32.60;;;;;;6118923;23;20375;-77
2023/02/10 15:44:02;;;;;;;1.00;1.00;;;8.40;33.90;;;;;;6095239;23;20462;-77
2023/02/10 15:46:30;;;;;;;1.00;1.00;;;8.50;33.30;;;;;;6123105;23;20411;-76
2023/02/10 15:49:11;;;;;;;1.03;1.03;;;8.60;33.60;;;;;;6123521;23;20705;-76
2023/02/10 15:51:44;;;;;;;0.90;0.90;;;8.80;33.30;;;;;;6096818;23;20407;-77
2023/02/10 15:54:21;;;;;;;1.00;1.00;;;8.90;33.00;;;;;;6097814;23;20867;-76
2023/02/10 15:57:01;;;;;;;0.80;0.80;;;9.10;33.40;;;;;;6096973;23;20367;-76
2023/02/10 15:59:29;;;;;;;0.80;0.80;;;9.10;33.50;;;;;;6093547;23;20380;-77
2023/02/10 16:01:57;;;;;;;0.80;0.80;;;9.20;33.10;;;;;;6097825;23;20748;-77
2023/02/10 16:04:27;;;;;;;0.90;0.90;;;9.20;32.50;;;;;;6096702;23;20384;-77
2023/02/10 16:06:54;;;;;;;1.00;1.00;;;9.20;32.40;;;;;;6123556;23;20379;-77
2023/02/10 16:09:21;;;;;;;1.00;1.00;;;9.20;32.40;;;;;;6097395;23;20765;-77
2023/02/10 16:11:48;;;;;;;1.05;1.02;;;9.20;32.40;;;;;;6096784;23;20474;-77
2023/02/10 16:14:15;;;;;;;1.00;1.00;;;9.10;32.80;;;;;;6072978;23;20383;-77
2023/02/10 16:16:49;;;;;;;1.10;1.10;;;9.10;33.50;;;;;;6121898;23;20618;-77
2023/02/10 16:19:16;;;;;;;1.00;1.00;;;8.90;34.00;;;;;;6097726;23;20440;-76
2023/02/10 16:21:43;;;;;;;1.05;1.05;;;8.80;33.70;;;;;;6096674;23;20525;-77
2023/02/10 16:24:18;;;;;;;0.90;0.90;;;8.70;34.00;;;;;;6097139;23;20451;-76
2023/02/10 16:26:46;;;;;;;1.10;1.10;;;8.60;34.20;;;;;;6096648;23;20442;-76
2023/02/10 16:29:26;;;;;;;0.90;0.90;;;8.30;34.10;;;;;;6073899;23;20411;-76
2023/02/10 16:31:53;;;;;;;0.90;0.90;;;8.10;35.10;;;;;;6096239;23;20379;-76
2023/02/10 16:34:21;;;;;;;1.38;1.00;;;8.00;35.30;;;;;;6097865;23;20391;-75
2023/02/10 16:36:48;;;;;;;1.20;1.20;;;7.80;36.00;;;;;;6096105;23;20372;-78
2023/02/10 16:39:18;;;;;;;1.45;1.35;;;7.70;37.10;;;;;;6097825;23;20375;-75
2023/02/10 16:41:46;;;;;;;1.67;1.58;;;7.40;37.70;;;;;;6096406;23;20764;-75
2023/02/10 16:44:13;;;;;;;3.17;1.95;;;7.20;38.30;;;;;;6095045;23;20411;-78
2023/02/10 16:46:40;;;;;;;1.80;1.70;;;7.00;39.60;;;;;;6095445;23;20434;-76
2023/02/10 16:49:07;;;;;;;1.90;1.80;;;6.80;40.50;;;;;;6097462;23;20439;-76
2023/02/10 16:51:34;;;;;;;1.70;1.60;;;6.60;40.70;;;;;;6095710;23;20372;-76
2023/02/10 16:54:07;;;;;;;2.28;2.17;;;6.30;40.90;;;;;;6095622;23;20380;-78
2023/02/10 16:56:34;;;;;;;1.90;1.80;;;6.00;41.80;;;;;;6093945;23;20375;-75
2023/02/10 16:59:01;;;;;;;1.90;1.80;;;5.80;42.60;;;;;;6095268;23;20402;-77
2023/02/10 17:01:30;;;;;;;2.13;2.03;;;5.70;42.60;;;;;;6095848;23;20372;-76
2023/02/10 17:03:58;;;;;;;1.63;1.58;;;5.70;42.90;;;;;;6096060;23;20430;-76
2023/02/10 17:06:26;;;;;;;1.77;1.67;;;5.50;43.50;;;;;;6096993;23;20725;-77
2023/02/10 17:08:53;;;;;;;1.90;1.80;;;5.50;43.40;;;;;;6096239;23;20379;-76
2023/02/10 17:11:20;;;;;;;1.83;1.73;;;5.40;44.50;;;;;;6097358;23;20412;-76
2023/02/10 17:13:47;;;;;;;2.05;1.95;;;5.30;43.90;;;;;;6096226;23;20748;-76
2023/02/10 17:16:29;;;;;;;2.00;1.90;;;5.20;44.30;;;;;;6096122;23;20380;-76
2023/02/10 17:18:56;;;;;;;2.10;2.00;;;4.90;45.00;;;;;;6121712;23;20384;-76
2023/02/10 17:21:23;;;;;;;2.10;2.00;;;4.70;45.80;;;;;;6097305;23;20420;-76
2023/02/10 17:23:50;;;;;;;2.03;1.92;;;4.40;46.50;;;;;;6096224;23;20383;-76
2023/02/10 17:26:17;;;;;;;2.13;2.00;;;4.40;47.10;;;;;;6097387;23;20752;-76
2023/02/10 17:28:44;;;;;;;2.08;1.98;;;4.30;47.40;;;;;;6096205;23;20714;-75
2023/02/10 17:31:22;;;;;;;1.83;1.73;;;4.10;48.30;;;;;;6096820;23;20394;-76
2023/02/10 17:33:50;;;;;;;1.85;1.75;;;4.00;49.00;;;;;;6095648;23;20447;-76
2023/02/10 17:36:24;;;;;;;2.20;2.00;;;3.90;49.00;;;;;;6096407;23;20379;-76
2023/02/10 17:38:53;;;;;;;1.90;1.80;;;3.80;49.20;;;;;;6096157;23;20403;-75
2023/02/10 17:41:25;;;;;;;1.65;1.55;;;3.80;49.10;;;;;;6097102;23;20709;-75
2023/02/10 17:43:54;;;;;;;2.10;2.00;;;3.80;48.70;;;;;;6096120;23;20426;-76
2023/02/10 17:46:22;;;;;;;1.80;1.70;;;3.60;48.60;;;;;;6122767;23;20371;-77
2023/02/10 17:48:50;;;;;;;1.90;1.80;;;3.50;48.80;;;;;;6089858;23;20701;-76
2023/02/10 17:51:26;;;;;;;2.17;2.07;;;3.40;48.90;;;;;;6067265;23;20370;-75
2023/02/10 17:53:53;;;;;;;2.38;2.28;;;3.30;49.00;;;;;;6090016;23;20751;-76
2023/02/10 17:56:21;;;;;;;2.70;2.50;;;3.20;49.80;;;;;;6091524;23;20381;-77
2023/02/10 17:58:51;;;;;;;2.70;2.50;;;3.10;49.90;;;;;;6091311;23;20378;-76
2023/02/10 18:01:20;;;;;;;2.70;2.60;;;2.90;50.90;;;;;;6092767;23;20389;-76
2023/02/10 18:03:48;;;;;;;2.47;2.33;;;2.80;50.80;;;;;;6090411;23;20409;-77
2023/02/10 18:06:16;;;;;;;2.70;2.50;;;2.70;51.00;;;;;;6092967;23;20430;-79
2023/02/10 18:08:44;;;;;;;2.50;2.30;;;2.70;51.10;;;;;;6090809;23;20494;-76